Terminal Aerodrome Forecast
Issued by NWS

Home | Current Version | Previous Version | Text Only | Print | Product List | Glossary On
Versions: 1 2 3 4 5 6 7 8 9 10 11 12
000
FTUS44 KLUB 291720
TAFCDS
TAF
KCDS 291720Z 2918/3018 01024G33KT P6SM FEW150 FEW250
     FM300100 04009KT P6SM FEW150 SCT250
     FM301500 13005KT P6SM BKN120 BKN250=

USA.gov is the U.S. government's official web portal to all federal, state and local government web resources and services.